Poesville, Texas
Current Conditions -  °F | °C
As of 5:55 AM on Sunday 21 Dec 2014 (Local Time) from KCPT Reporting Station
Haze Haze  
Wind Chill: 43°   Ceiling: 1600
Heat Index: 46°   Visibility: 6mi
Dew Point: 46°   Wind: 7mph
Humidity: 100%   Direction: 140°SE
Pressure: 30.11"   Gusts: NA
Location:  32.0481°N, 97.6449°W
Report Text: KCPT 211155Z AUTO 14006KT 6SM BR OVC016 08/08 A3011 RMK AO2
Loading
Personal Weather Stations






























Interactive Weather Map New forecast layout! Learn more

10-Day Weather Forecast

Advertisements
Track Severe Weather on mobile